Forside
METAR-TAF:

METAR-TAF

Lufthavne :

Manila, Filippinerne

Breddekreds: 14-31N, længdekreds: 121-00E, højde: 14 m

Aktuelle vejr

Denne rapport blev lavet for 1 time og 18 minutter siden, kl. 16:00 UTC
Vind 2 kt fra varierende retninger
Temperatur 25°C
Fugtighed 69%
Tryk 1013 hPa
Sigt 10 km eller mere
Nogle få skyer i en højde af 2500 ft

METAR: RPLL 231600Z VRB02KT 9999 FEW025 25/19 Q1013 NOSIG RMK A2991

Tid: 01:18 (17:18 UTC)

Vejrudsigter

Denne rapport blev lavet for 6 timer og 18 minutter siden, kl. 11:00 UTC
Foreløbig gælder fra 23 på 12 UTC til 24 på 18 UTC
Vind 6 kt fra østsydøst
Sigt 10 km eller mere
Nogle få skyer i en højde af 2500 ft
Midlertidig
fra 23 på 12 UTC til 23 på 18 UTC
Vind 10 kt fra øst
Spredte skyer i en højde af 2300 ft
Midlertidig
fra 23 på 18 UTC til 23 på 24 UTC
Vind 5 kt fra østnordøst
Spredte skyer i en højde af 2300 ft
Brudte skyer i en højde af 10000 ft

TAF: RPLL 231100Z 2312/2418 11006KT 9999 FEW025 TX32/2406Z TN24/2322Z TEMPO 2312/2318 09010KT SCT023 TEMPO 2318/2324 07005KT SCT023 BKN100

Vejrobservationer og prognoser fra mere end 4000 lufthavne (METAR og TAF).

De gule og røde prikker repræsenterer de meteorologiske stationer.

Flyt musen over at se navnet på stationen.

Så klik over at se vejr observationer og prognoser.

At skifte det kort: Klik på de grønne knapper med et sort kors for at zoome ind; på den grønne knap med en bindestreg for at zoome ud; eller på de grønne pile for tilstødende kort.


METAR-TAF: